createdAt,value
2018-11-29T00:00:20.216Z,17.07
2018-11-29T00:02:48.684Z,17.97
2018-11-29T00:05:16.890Z,16.50
2018-11-29T00:07:45.061Z,16.40
2018-11-29T00:10:13.338Z,17.27
2018-11-29T00:12:41.567Z,17.40
2018-11-29T00:15:11.798Z,16.80
2018-11-29T00:17:40.064Z,18.03
2018-11-29T00:20:12.126Z,17.90
2018-11-29T00:22:40.505Z,18.60
2018-11-29T00:25:09.828Z,17.93
2018-11-29T00:27:38.083Z,20.30
2018-11-29T00:30:08.938Z,18.87
2018-11-29T00:32:37.138Z,17.20
2018-11-29T00:35:06.732Z,18.50
2018-11-29T00:37:34.999Z,18.43
2018-11-29T00:40:03.573Z,18.30
2018-11-29T00:42:31.812Z,18.83
2018-11-29T00:45:00.043Z,18.83
2018-11-29T00:47:28.252Z,19.40
2018-11-29T00:49:56.477Z,19.33
2018-11-29T00:52:24.651Z,18.37
2018-11-29T00:54:52.911Z,18.30
2018-11-29T00:57:21.151Z,19.23
2018-11-29T00:59:49.389Z,19.57
2018-11-29T01:02:17.666Z,18.53
2018-11-29T01:04:45.891Z,18.57
2018-11-29T01:07:14.098Z,19.00
2018-11-29T01:09:42.296Z,20.17
2018-11-29T01:12:10.470Z,19.60
2018-11-29T01:14:38.682Z,20.07
2018-11-29T01:17:06.932Z,20.27
2018-11-29T01:19:35.198Z,19.67
2018-11-29T01:22:03.421Z,19.10
2018-11-29T01:24:31.641Z,19.23
2018-11-29T01:27:00.669Z,19.33
2018-11-29T01:29:28.911Z,18.87
2018-11-29T01:31:57.089Z,19.63
2018-11-29T01:34:25.363Z,17.33
2018-11-29T01:36:53.656Z,19.97
2018-11-29T01:39:21.926Z,18.40
2018-11-29T01:41:50.202Z,18.67
2018-11-29T01:44:18.483Z,18.23
2018-11-29T01:46:46.689Z,18.87
2018-11-29T01:49:14.914Z,21.43
2018-11-29T01:51:43.190Z,19.00
2018-11-29T01:54:11.486Z,17.47
2018-11-29T01:56:39.746Z,17.37
2018-11-29T01:59:08.011Z,17.57
2018-11-29T02:01:36.304Z,19.33
2018-11-29T02:04:04.935Z,18.77
2018-11-29T02:06:33.180Z,17.00
2018-11-29T02:09:01.497Z,16.97
2018-11-29T02:11:29.742Z,17.80
2018-11-29T02:13:58.038Z,16.87
2018-11-29T02:16:26.331Z,18.10
2018-11-29T02:18:54.590Z,18.03
2018-11-29T02:21:22.821Z,17.67
2018-11-29T02:23:51.102Z,17.73
2018-11-29T02:26:19.574Z,17.70
2018-11-29T02:28:47.945Z,17.70
2018-11-29T02:31:16.287Z,18.40
2018-11-29T02:33:44.554Z,18.03
2018-11-29T02:36:12.747Z,19.27
2018-11-29T02:38:41.137Z,17.97
2018-11-29T02:41:09.398Z,18.10
2018-11-29T02:43:37.625Z,17.73
2018-11-29T02:46:06.091Z,17.63
2018-11-29T02:48:34.361Z,17.60
2018-11-29T02:51:02.557Z,16.63
2018-11-29T02:53:30.781Z,17.87
2018-11-29T02:55:59.053Z,18.17
2018-11-29T02:58:27.278Z,18.80
2018-11-29T03:00:55.490Z,17.63
2018-11-29T03:03:23.724Z,18.50
2018-11-29T03:05:51.914Z,18.03
2018-11-29T03:08:20.132Z,17.20
2018-11-29T03:10:48.432Z,16.63
2018-11-29T03:13:16.644Z,16.77
2018-11-29T03:15:44.918Z,17.53
2018-11-29T03:18:13.160Z,17.27
2018-11-29T03:20:41.475Z,16.93
2018-11-29T03:23:09.714Z,18.00
2018-11-29T03:25:37.961Z,17.10
2018-11-29T03:28:06.589Z,16.67
2018-11-29T03:30:34.848Z,16.70
2018-11-29T03:33:03.226Z,18.00
2018-11-29T03:35:31.501Z,16.80
2018-11-29T03:37:59.800Z,17.40
2018-11-29T03:40:28.080Z,17.63
2018-11-29T03:42:56.597Z,17.20
2018-11-29T03:45:24.835Z,16.83
2018-11-29T03:47:53.078Z,17.70
2018-11-29T03:50:21.343Z,16.87
2018-11-29T03:52:49.567Z,17.07
2018-11-29T03:55:17.875Z,16.60
2018-11-29T03:57:46.119Z,16.53
2018-11-29T04:00:17.950Z,15.97
2018-11-29T04:02:47.204Z,16.50
2018-11-29T04:05:15.457Z,17.77
2018-11-29T04:07:43.702Z,18.13
2018-11-29T04:10:12.930Z,17.97
2018-11-29T04:12:41.410Z,17.80
2018-11-29T04:15:10.985Z,17.33
2018-11-29T04:17:40.841Z,17.30
2018-11-29T04:20:10.299Z,17.60
2018-11-29T04:22:38.568Z,17.37
2018-11-29T04:25:08.166Z,18.23
2018-11-29T04:27:36.478Z,17.87
2018-11-29T04:30:05.802Z,18.83
2018-11-29T04:32:34.026Z,17.87
2018-11-29T04:35:02.329Z,17.77
2018-11-29T04:37:30.688Z,17.97
2018-11-29T04:39:58.971Z,18.03
2018-11-29T04:42:27.180Z,17.63
2018-11-29T04:44:55.436Z,17.47
2018-11-29T04:47:23.671Z,18.60
2018-11-29T04:49:51.965Z,17.97
2018-11-29T04:52:20.183Z,18.20
2018-11-29T04:54:48.439Z,18.37
2018-11-29T04:57:16.647Z,17.43
2018-11-29T04:59:44.875Z,16.83
2018-11-29T05:02:13.147Z,16.10
2018-11-29T05:04:41.399Z,17.97
2018-11-29T05:07:09.726Z,18.10
2018-11-29T05:09:37.919Z,17.67
2018-11-29T05:12:06.151Z,17.57
2018-11-29T05:14:34.374Z,18.47
2018-11-29T05:17:02.606Z,16.83
2018-11-29T05:19:30.924Z,17.87
2018-11-29T05:21:59.167Z,17.20
2018-11-29T05:24:27.377Z,16.70
2018-11-29T05:26:55.649Z,17.27
2018-11-29T05:29:23.902Z,17.80
2018-11-29T05:31:52.234Z,17.00
2018-11-29T05:34:20.467Z,17.73
2018-11-29T05:36:48.811Z,17.57
2018-11-29T05:39:17.031Z,15.73
2018-11-29T05:41:45.293Z,17.30
2018-11-29T05:44:13.538Z,17.53
2018-11-29T05:46:42.679Z,18.13
2018-11-29T05:49:10.096Z,18.23
2018-11-29T05:51:38.462Z,17.17
2018-11-29T05:54:06.779Z,18.47
2018-11-29T05:56:35.068Z,17.47
2018-11-29T05:59:03.315Z,17.60
2018-11-29T06:01:34.158Z,17.97
2018-11-29T06:04:02.619Z,18.80
2018-11-29T06:06:30.912Z,18.30
2018-11-29T06:08:59.154Z,17.90
2018-11-29T06:11:27.451Z,18.60
2018-11-29T06:13:55.715Z,19.33
2018-11-29T06:16:23.935Z,19.00
2018-11-29T06:18:52.203Z,18.87
2018-11-29T06:21:20.573Z,19.10
2018-11-29T06:23:48.842Z,18.30
2018-11-29T06:26:17.200Z,19.60
2018-11-29T06:28:45.406Z,20.97
2018-11-29T06:31:13.691Z,18.77
2018-11-29T06:33:41.929Z,20.03
2018-11-29T06:36:10.139Z,18.47
2018-11-29T06:38:38.450Z,19.60
2018-11-29T06:41:06.785Z,18.93
2018-11-29T06:43:35.987Z,18.60
2018-11-29T06:46:04.328Z,19.67
2018-11-29T06:48:32.614Z,19.93
2018-11-29T06:51:00.808Z,19.37
2018-11-29T06:53:34.495Z,18.93
2018-11-29T06:56:02.699Z,18.80
2018-11-29T06:58:30.944Z,19.90
2018-11-29T07:00:59.205Z,19.00
2018-11-29T07:03:28.937Z,19.60
2018-11-29T07:05:55.636Z,18.20
2018-11-29T07:08:23.830Z,19.70
2018-11-29T07:10:52.050Z,20.33
2018-11-29T07:13:20.294Z,18.63
2018-11-29T07:15:48.570Z,19.73
2018-11-29T07:18:16.847Z,18.20
2018-11-29T07:20:55.159Z,18.20
2018-11-29T07:23:23.433Z,19.87
2018-11-29T07:25:51.714Z,19.33
2018-11-29T07:28:19.989Z,18.77
2018-11-29T07:30:48.234Z,19.93
2018-11-29T07:33:16.454Z,18.10
2018-11-29T07:35:44.731Z,18.70
2018-11-29T07:38:12.956Z,18.67
2018-11-29T07:40:41.164Z,18.43
2018-11-29T07:43:09.462Z,19.23
2018-11-29T07:45:37.742Z,20.10
2018-11-29T07:48:06.018Z,19.43
2018-11-29T07:50:34.250Z,19.77
2018-11-29T07:53:02.531Z,19.27
2018-11-29T07:55:30.784Z,20.40
2018-11-29T07:57:59.016Z,18.50
2018-11-29T08:00:27.804Z,19.33
2018-11-29T08:02:56.039Z,19.27
2018-11-29T08:05:24.217Z,18.37
2018-11-29T08:07:52.436Z,20.70
2018-11-29T08:10:21.260Z,18.53
2018-11-29T08:12:49.652Z,19.33
2018-11-29T08:15:19.195Z,18.00
2018-11-29T08:17:47.629Z,18.03
2018-11-29T08:20:18.130Z,17.50
2018-11-29T08:22:46.354Z,17.13
2018-11-29T08:25:14.557Z,18.43
2018-11-29T08:27:42.819Z,17.00
2018-11-29T08:30:12.980Z,16.60
2018-11-29T08:32:41.344Z,17.17
2018-11-29T08:35:10.940Z,17.43
2018-11-29T08:37:39.899Z,17.77
2018-11-29T08:40:10.674Z,16.40
2018-11-29T08:42:38.849Z,18.50
2018-11-29T08:45:09.478Z,20.50
2018-11-29T08:47:37.695Z,17.07
2018-11-29T08:50:07.968Z,17.30
2018-11-29T08:52:36.326Z,18.20
2018-11-29T08:55:05.046Z,17.60
2018-11-29T08:57:33.239Z,18.00
2018-11-29T09:00:01.439Z,18.10
2018-11-29T09:02:29.641Z,18.70
2018-11-29T09:04:57.840Z,18.73
2018-11-29T09:07:26.055Z,19.53
2018-11-29T09:09:54.231Z,18.60
2018-11-29T09:12:22.423Z,19.20
2018-11-29T09:14:50.627Z,17.77
2018-11-29T09:17:18.862Z,17.07
2018-11-29T09:19:47.059Z,16.90
2018-11-29T09:22:15.325Z,17.47
2018-11-29T09:24:43.543Z,17.30
2018-11-29T09:27:11.766Z,16.90
2018-11-29T09:29:39.961Z,18.23
2018-11-29T09:32:08.139Z,17.90
2018-11-29T09:34:36.459Z,17.77
2018-11-29T09:37:04.687Z,16.40
2018-11-29T09:39:32.941Z,16.90
2018-11-29T09:42:01.155Z,17.23
2018-11-29T09:44:29.430Z,17.37
2018-11-29T09:47:04.362Z,16.50
2018-11-29T09:49:32.595Z,16.70
2018-11-29T09:52:00.803Z,14.17
2018-11-29T09:54:28.990Z,14.77
2018-11-29T09:56:57.161Z,14.20
2018-11-29T09:59:25.387Z,14.30
2018-11-29T10:01:54.079Z,15.97
2018-11-29T10:04:22.369Z,14.20
2018-11-29T10:06:50.559Z,14.00
2018-11-29T10:09:18.774Z,14.23
2018-11-29T10:11:47.014Z,14.20
2018-11-29T10:14:15.227Z,13.83
2018-11-29T10:16:43.531Z,14.83
2018-11-29T10:19:11.757Z,15.63
2018-11-29T10:21:39.998Z,14.10
2018-11-29T10:24:08.209Z,14.33
2018-11-29T10:26:36.434Z,14.90
2018-11-29T10:29:04.780Z,13.23
2018-11-29T10:31:32.983Z,14.13
2018-11-29T10:34:01.174Z,14.50
2018-11-29T10:36:29.374Z,15.17
2018-11-29T10:38:57.600Z,12.73
2018-11-29T10:41:25.859Z,14.17
2018-11-29T10:43:54.189Z,14.50
2018-11-29T10:46:22.395Z,14.87
2018-11-29T10:48:50.763Z,14.10
2018-11-29T10:51:18.998Z,14.77
2018-11-29T10:53:47.208Z,22.37
2018-11-29T10:56:15.472Z,17.97
2018-11-29T10:58:43.723Z,16.80
2018-11-29T11:01:17.268Z,14.63
2018-11-29T11:03:45.485Z,13.57
2018-11-29T11:06:19.241Z,14.75
2018-11-29T11:08:47.503Z,14.50
2018-11-29T11:11:15.792Z,13.37
2018-11-29T11:13:44.089Z,13.43
2018-11-29T11:16:12.466Z,13.90
2018-11-29T11:18:40.724Z,14.53
2018-11-29T11:21:08.970Z,13.13
2018-11-29T11:23:37.184Z,14.20
2018-11-29T11:26:05.804Z,14.67
2018-11-29T11:28:34.023Z,15.07
2018-11-29T11:31:02.255Z,14.13
2018-11-29T11:33:30.495Z,14.87
2018-11-29T11:35:58.759Z,14.17
2018-11-29T11:38:27.034Z,14.10
2018-11-29T11:40:55.261Z,13.87
2018-11-29T11:43:23.566Z,14.63
2018-11-29T11:45:51.864Z,13.43
2018-11-29T11:48:20.117Z,14.00
2018-11-29T11:50:48.419Z,16.93
2018-11-29T11:53:16.664Z,15.13
2018-11-29T11:55:44.868Z,13.70
2018-11-29T11:58:13.121Z,14.60
2018-11-29T12:00:41.464Z,13.83
2018-11-29T12:03:14.191Z,14.50
2018-11-29T12:05:42.446Z,15.30
2018-11-29T12:08:10.758Z,15.97
2018-11-29T12:10:40.271Z,15.20
2018-11-29T12:13:08.587Z,17.43
2018-11-29T12:15:37.598Z,18.10
2018-11-29T12:18:07.656Z,18.00
2018-11-29T12:20:35.957Z,19.20
2018-11-29T12:23:04.187Z,17.13
2018-11-29T12:25:32.456Z,20.10
2018-11-29T12:28:00.654Z,16.13
2018-11-29T12:30:31.566Z,13.97
2018-11-29T12:33:01.387Z,12.23
2018-11-29T12:35:29.655Z,13.07
2018-11-29T12:37:58.123Z,12.73
2018-11-29T12:40:26.342Z,13.77
2018-11-29T12:42:54.615Z,12.97
2018-11-29T12:45:22.890Z,13.30
2018-11-29T12:47:51.183Z,12.67
2018-11-29T12:50:21.187Z,12.20
2018-11-29T12:55:52.564Z,13.10
2018-11-29T12:58:20.823Z,12.83
2018-11-29T13:00:49.068Z,12.30
2018-11-29T13:03:17.267Z,12.47
2018-11-29T13:05:45.506Z,11.93
2018-11-29T13:08:13.710Z,11.33
2018-11-29T13:10:41.993Z,11.07
2018-11-29T13:13:10.247Z,10.90
2018-11-29T13:15:38.471Z,11.10
2018-11-29T13:18:07.939Z,11.40
2018-11-29T13:20:36.334Z,11.63
2018-11-29T13:23:04.581Z,12.17
2018-11-29T13:25:32.857Z,11.53
2018-11-29T13:28:01.129Z,10.93
2018-11-29T13:30:29.346Z,11.53
2018-11-29T13:32:57.621Z,10.87
2018-11-29T13:35:40.382Z,12.10
2018-11-29T13:38:13.618Z,10.80
2018-11-29T13:40:43.469Z,10.87
2018-11-29T13:43:11.682Z,10.83
2018-11-29T13:45:39.878Z,11.20
2018-11-29T13:48:09.595Z,11.20
2018-11-29T13:50:38.339Z,10.77
2018-11-29T13:53:06.560Z,10.83
2018-11-29T13:55:34.863Z,11.13
2018-11-29T13:58:03.116Z,10.53
2018-11-29T14:00:31.504Z,10.57
2018-11-29T14:03:01.578Z,11.43
2018-11-29T14:05:29.989Z,11.17
2018-11-29T14:07:58.472Z,9.83
2018-11-29T14:10:26.865Z,11.53
2018-11-29T14:12:55.651Z,11.47
2018-11-29T14:15:27.408Z,10.40
2018-11-29T14:17:55.747Z,10.23
2018-11-29T14:20:24.013Z,10.93
2018-11-29T14:22:52.222Z,10.47
2018-11-29T14:25:20.465Z,9.83
2018-11-29T14:27:51.744Z,9.47
2018-11-29T14:30:21.060Z,10.73
2018-11-29T14:32:52.381Z,10.33
2018-11-29T14:35:20.653Z,10.20
2018-11-29T14:37:48.900Z,10.17
2018-11-29T14:40:18.144Z,10.37
2018-11-29T14:42:46.419Z,11.10
2018-11-29T14:45:15.813Z,11.57
2018-11-29T14:47:44.072Z,13.57
2018-11-29T14:50:44.736Z,13.30
2018-11-29T14:53:13.187Z,11.83
2018-11-29T14:55:41.808Z,10.83
2018-11-29T14:58:11.616Z,11.10
2018-11-29T15:00:40.032Z,10.90
2018-11-29T15:03:09.919Z,11.40
2018-11-29T15:05:38.436Z,10.33
2018-11-29T15:08:08.598Z,10.83
2018-11-29T15:10:37.396Z,11.43
2018-11-29T15:13:07.516Z,11.47
2018-11-29T15:15:36.348Z,10.93
2018-11-29T15:18:04.820Z,13.27
2018-11-29T15:20:36.041Z,10.63
2018-11-29T15:23:04.512Z,11.90
2018-11-29T15:25:33.213Z,11.53
2018-11-29T15:28:01.373Z,12.47
2018-11-29T15:30:29.830Z,11.67
2018-11-29T15:32:58.384Z,10.47
2018-11-29T15:35:26.824Z,10.23
2018-11-29T15:37:55.241Z,9.90
2018-11-29T15:40:23.664Z,10.27
2018-11-29T15:42:52.207Z,10.57
2018-11-29T15:45:21.844Z,10.00
2018-11-29T15:47:50.243Z,10.73
2018-11-29T15:50:18.745Z,10.93
2018-11-29T15:52:47.096Z,11.00
2018-11-29T15:55:20.192Z,11.10
2018-11-29T15:57:49.548Z,10.07
2018-11-29T16:00:20.016Z,11.80
2018-11-29T16:02:48.905Z,13.90
2018-11-29T16:05:17.379Z,12.97
2018-11-29T16:07:45.864Z,13.00
2018-11-29T16:10:15.707Z,12.23
2018-11-29T16:12:44.080Z,13.47
2018-11-29T16:15:14.457Z,11.57
2018-11-29T16:17:43.272Z,10.10
2018-11-29T16:20:13.202Z,10.90
2018-11-29T16:22:41.688Z,11.00
2018-11-29T16:25:11.281Z,11.83
2018-11-29T16:27:39.745Z,10.53
2018-11-29T16:30:14.325Z,9.97
2018-11-29T16:32:42.823Z,10.50
2018-11-29T16:35:11.201Z,10.50
2018-11-29T16:37:39.658Z,12.63
2018-11-29T16:40:09.102Z,13.17
2018-11-29T16:42:37.616Z,12.53
2018-11-29T16:45:09.336Z,28.30
2018-11-29T16:47:37.941Z,12.30
2018-11-29T16:50:08.591Z,13.57
2018-11-29T16:52:37.370Z,32.40
2018-11-29T16:55:07.365Z,10.60
2018-11-29T16:57:36.052Z,13.33
2018-11-29T17:00:08.561Z,13.53
2018-11-29T17:02:37.128Z,13.50
2018-11-29T17:05:06.203Z,11.80
2018-11-29T17:07:34.669Z,10.97
2018-11-29T17:10:03.302Z,11.73
2018-11-29T17:12:31.781Z,11.23
2018-11-29T17:15:00.418Z,16.73
2018-11-29T17:17:28.932Z,12.07
2018-11-29T17:19:57.484Z,15.77
2018-11-29T17:22:25.891Z,13.73
2018-11-29T17:24:54.461Z,20.57
2018-11-29T17:27:22.843Z,11.07
2018-11-29T17:29:51.381Z,13.80
2018-11-29T17:32:19.938Z,12.70
2018-11-29T17:34:48.398Z,13.97
2018-11-29T17:37:16.787Z,12.03
2018-11-29T17:39:45.181Z,10.77
2018-11-29T17:42:13.644Z,16.57
2018-11-29T17:44:42.230Z,10.03
2018-11-29T17:47:10.586Z,9.53
2018-11-29T17:49:39.044Z,9.63
2018-11-29T17:52:07.465Z,9.57
2018-11-29T17:54:36.129Z,9.57
2018-11-29T17:57:04.554Z,9.87
2018-11-29T17:59:32.933Z,10.60
2018-11-29T18:02:01.375Z,9.60
2018-11-29T18:04:29.883Z,28.77
2018-11-29T18:06:58.170Z,11.07
2018-11-29T18:09:26.626Z,12.63
2018-11-29T18:11:54.922Z,10.17
2018-11-29T18:14:23.278Z,10.20
2018-11-29T18:16:51.673Z,12.23
2018-11-29T18:19:20.106Z,10.40
2018-11-29T18:21:48.575Z,11.37
2018-11-29T18:24:16.996Z,10.97
2018-11-29T18:26:45.373Z,10.63
2018-11-29T18:29:13.749Z,11.70
2018-11-29T18:31:42.202Z,12.70
2018-11-29T18:34:10.538Z,10.90
2018-11-29T18:36:38.901Z,10.47
2018-11-29T18:39:08.951Z,9.00
2018-11-29T18:41:37.414Z,9.73
2018-11-29T18:44:06.533Z,11.40
2018-11-29T18:46:34.882Z,16.27
2018-11-29T18:49:03.347Z,14.27
2018-11-29T18:51:31.734Z,14.60
2018-11-29T18:54:00.233Z,13.63
2018-11-29T18:56:28.630Z,13.77
2018-11-29T18:58:57.008Z,13.60
2018-11-29T19:01:25.453Z,13.87
2018-11-29T19:03:53.787Z,13.40
2018-11-29T19:06:22.274Z,15.03
2018-11-29T19:08:50.572Z,13.37
2018-11-29T19:11:19.059Z,15.23
2018-11-29T19:13:47.355Z,12.43
2018-11-29T19:16:16.000Z,12.67
2018-11-29T19:18:44.404Z,12.60
2018-11-29T19:21:12.785Z,13.23
2018-11-29T19:23:41.240Z,14.87
2018-11-29T19:26:09.713Z,12.23
2018-11-29T19:28:38.088Z,12.20
2018-11-29T19:31:06.482Z,13.33
2018-11-29T19:33:34.877Z,11.73
2018-11-29T19:36:05.061Z,10.80
2018-11-29T19:38:33.387Z,12.47
2018-11-29T19:41:01.737Z,14.20
2018-11-29T19:43:30.123Z,12.43
2018-11-29T19:45:58.609Z,11.37
2018-11-29T19:48:26.936Z,13.60
2018-11-29T19:50:55.366Z,12.00
2018-11-29T19:53:25.043Z,11.50
2018-11-29T19:55:56.340Z,12.57
2018-11-29T19:58:24.804Z,10.30
2018-11-29T20:00:53.268Z,11.40
2018-11-29T20:03:21.636Z,12.27
2018-11-29T20:05:49.992Z,15.57
2018-11-29T20:08:18.371Z,25.73
2018-11-29T20:10:46.862Z,22.10
2018-11-29T20:13:15.708Z,28.60
2018-11-29T20:15:47.760Z,15.37
2018-11-29T20:18:16.075Z,11.93
2018-11-29T20:20:44.485Z,12.40
2018-11-29T20:23:13.211Z,13.37
2018-11-29T20:25:43.831Z,15.10
2018-11-29T20:28:12.287Z,14.50
2018-11-29T20:30:40.689Z,14.13
2018-11-29T20:33:09.069Z,13.23
2018-11-29T20:35:37.445Z,12.80
2018-11-29T20:38:06.552Z,11.10
2018-11-29T20:40:37.708Z,12.93
2018-11-29T20:43:06.357Z,11.20
2018-11-29T20:45:42.225Z,12.03
2018-11-29T20:48:20.111Z,13.43
2018-11-29T20:50:48.908Z,15.40
2018-11-29T20:53:20.330Z,18.00
2018-11-29T20:55:48.744Z,18.40
2018-11-29T20:58:17.195Z,22.07
2018-11-29T21:00:45.623Z,19.20
2018-11-29T21:03:14.005Z,18.13
2018-11-29T21:05:43.075Z,14.87
2018-11-29T21:08:12.078Z,15.80
2018-11-29T21:10:40.476Z,14.77
2018-11-29T21:13:08.935Z,15.10
2018-11-29T21:15:39.269Z,14.57
2018-11-29T21:18:10.013Z,11.10
2018-11-29T21:20:39.635Z,11.47
2018-11-29T21:23:09.517Z,9.90
2018-11-29T21:25:37.875Z,13.20
2018-11-29T21:28:06.991Z,15.57
2018-11-29T21:30:35.506Z,13.87
2018-11-29T21:33:04.333Z,27.10
2018-11-29T21:35:32.641Z,14.93
2018-11-29T21:38:05.172Z,13.13
2018-11-29T21:40:33.387Z,13.97
2018-11-29T21:43:01.637Z,12.40
2018-11-29T21:45:29.839Z,10.70
2018-11-29T21:47:58.080Z,11.03
2018-11-29T21:50:26.282Z,9.97
2018-11-29T21:52:54.481Z,10.43
2018-11-29T21:55:22.704Z,9.10
2018-11-29T21:57:51.313Z,9.40
2018-11-29T22:00:20.899Z,9.13
2018-11-29T22:02:50.631Z,11.63
2018-11-29T22:05:18.831Z,9.20
2018-11-29T22:07:47.063Z,9.77
2018-11-29T22:10:15.265Z,9.10
2018-11-29T22:12:43.540Z,9.53
2018-11-29T22:15:12.223Z,8.83
2018-11-29T22:17:50.783Z,8.43
2018-11-29T22:20:18.999Z,9.67
2018-11-29T22:22:47.225Z,13.07
2018-11-29T22:25:15.444Z,8.00
2018-11-29T22:27:43.641Z,8.20
2018-11-29T22:30:11.901Z,7.80
2018-11-29T22:32:40.247Z,7.73
2018-11-29T22:35:09.069Z,8.03
2018-11-29T22:37:37.655Z,7.57
2018-11-29T22:40:06.703Z,7.00
2018-11-29T22:42:34.930Z,7.80
2018-11-29T22:45:03.185Z,9.50
2018-11-29T22:47:31.367Z,8.80
2018-11-29T22:49:59.563Z,7.90
2018-11-29T22:52:27.807Z,7.73
2018-11-29T22:54:56.031Z,6.60
2018-11-29T22:57:24.282Z,6.73
2018-11-29T22:59:52.527Z,7.27
2018-11-29T23:02:20.740Z,7.00
2018-11-29T23:04:48.984Z,7.33
2018-11-29T23:07:17.192Z,7.13
2018-11-29T23:09:45.405Z,8.30
2018-11-29T23:12:13.715Z,9.73
2018-11-29T23:14:41.952Z,6.90
2018-11-29T23:17:10.161Z,7.67
2018-11-29T23:19:38.338Z,7.17
2018-11-29T23:22:06.526Z,8.00
2018-11-29T23:24:34.797Z,7.90
2018-11-29T23:27:03.708Z,8.50
2018-11-29T23:29:31.932Z,8.07
2018-11-29T23:32:00.137Z,7.37
2018-11-29T23:34:28.411Z,7.60
2018-11-29T23:36:56.608Z,7.43
2018-11-29T23:39:24.850Z,6.87
2018-11-29T23:41:53.056Z,7.50
2018-11-29T23:44:21.273Z,8.30
2018-11-29T23:46:49.508Z,8.27
2018-11-29T23:49:17.720Z,7.03
2018-11-29T23:51:45.973Z,7.40
2018-11-29T23:54:14.203Z,8.10
2018-11-29T23:56:42.427Z,7.73
2018-11-29T23:59:10.655Z,8.10
